Time;durP1;ratioP1;P1;durP2;ratioP2;P2;SDS_P1;SDS_P2;PMS_P1;PMS_P2;Temp;Humidity;BMP_temperature;BMP_pressure;BME280_temperature;BME280_humidity;BME280_pressure;Samples;Min_cycle;Max_cycle;Signal;HPM_P1;HPM_P2
2024/04/17 00:01:46;;;;;;;5.07;1.75;;;;;;;;;;5439296;26;19996;-62
2024/04/17 00:04:12;;;;;;;2.08;1.88;;;;;;;;;;5427071;26;20442;-62
2024/04/17 00:06:38;;;;;;;2.13;1.95;;;;;;;;;;5356604;26;20014;-62
2024/04/17 00:09:04;;;;;;;2.67;1.85;;;;;;;;;;5428225;26;19995;-63
2024/04/17 00:11:30;;;;;;;9.02;2.20;;;;;;;;;;5436079;26;20106;-66
2024/04/17 00:13:57;;;;;;;3.45;2.20;;;;;;;;;;5426483;26;20210;-62
2024/04/17 00:16:23;;;;;;;5.60;2.63;;;;;;;;;;5423691;26;20039;-62
2024/04/17 00:18:49;;;;;;;3.30;2.35;;;;;;;;;;5416968;26;20523;-63
2024/04/17 00:21:15;;;;;;;4.65;2.22;;;;;;;;;;5428607;26;19995;-63
2024/04/17 00:23:41;;;;;;;3.45;1.92;;;;;;;;;;5430157;26;20737;-63
2024/04/17 00:26:07;;;;;;;3.78;2.42;;;;;;;;;;5399482;26;20003;-62
2024/04/17 00:28:33;;;;;;;2.28;1.77;;;;;;;;;;5420690;26;21135;-63
2024/04/17 00:31:00;;;;;;;1.80;1.70;;;;;;;;;;5426761;26;20071;-63
2024/04/17 00:33:26;;;;;;;4.50;1.83;;;;;;;;;;5413491;26;20002;-64
2024/04/17 00:35:52;;;;;;;1.48;1.42;;;;;;;;;;5425599;26;20003;-63
2024/04/17 00:38:18;;;;;;;3.15;2.38;;;;;;;;;;5433451;26;20533;-63
2024/04/17 00:40:45;;;;;;;4.07;1.98;;;;;;;;;;5421235;26;20012;-62
2024/04/17 00:43:11;;;;;;;4.57;2.20;;;;;;;;;;5430551;26;20003;-63
2024/04/17 00:45:41;;;;;;;3.40;1.80;;;;;;;;;;5426452;26;20486;-63
2024/04/17 00:48:12;;;;;;;3.47;1.95;;;;;;;;;;5429606;26;20913;-62
2024/04/17 00:50:38;;;;;;;2.33;2.08;;;;;;;;;;5428129;26;19998;-63
2024/04/17 00:53:05;;;;;;;2.10;1.90;;;;;;;;;;5423773;26;20018;-62
2024/04/17 00:55:32;;;;;;;2.83;1.90;;;;;;;;;;5429498;26;20014;-62
2024/04/17 00:58:00;;;;;;;3.60;2.13;;;;;;;;;;5427479;26;19995;-61
2024/04/17 01:00:26;;;;;;;8.20;2.00;;;;;;;;;;5407343;26;20309;-63
2024/04/17 01:02:52;;;;;;;3.47;2.20;;;;;;;;;;5428846;26;20033;-62
2024/04/17 01:05:18;;;;;;;2.05;1.85;;;;;;;;;;5432234;26;20042;-62
2024/04/17 01:07:45;;;;;;;2.90;2.00;;;;;;;;;;5426305;26;20286;-65
2024/04/17 01:10:11;;;;;;;1.70;1.60;;;;;;;;;;5423735;26;19999;-63
2024/04/17 01:12:37;;;;;;;5.47;2.30;;;;;;;;;;5412237;26;20022;-62
2024/04/17 01:15:09;;;;;;;8.98;2.42;;;;;;;;;;5425975;26;20017;-62
2024/04/17 01:17:39;;;;;;;5.20;2.10;;;;;;;;;;5422413;26;20007;-62
2024/04/17 01:20:05;;;;;;;4.82;2.17;;;;;;;;;;5431409;26;20301;-62
2024/04/17 01:22:31;;;;;;;4.32;1.95;;;;;;;;;;5435681;26;20002;-63
2024/04/17 01:24:58;;;;;;;5.97;2.35;;;;;;;;;;5432195;26;19998;-63
2024/04/17 01:27:24;;;;;;;4.35;2.33;;;;;;;;;;5425200;26;20013;-62
2024/04/17 01:29:51;;;;;;;6.65;2.05;;;;;;;;;;5427718;26;20051;-63
2024/04/17 01:32:17;;;;;;;2.75;2.38;;;;;;;;;;5393047;26;20022;-63
2024/04/17 01:34:43;;;;;;;4.18;2.28;;;;;;;;;;5423001;26;19999;-62
2024/04/17 01:37:09;;;;;;;1.92;1.73;;;;;;;;;;5427278;26;20004;-62
2024/04/17 01:39:35;;;;;;;4.22;1.90;;;;;;;;;;5401730;26;19995;-63
2024/04/17 01:42:01;;;;;;;6.30;2.67;;;;;;;;;;5430624;26;20454;-63
2024/04/17 01:44:28;;;;;;;3.33;1.90;;;;;;;;;;5431771;26;20003;-63
2024/04/17 01:46:54;;;;;;;5.20;2.28;;;;;;;;;;5423303;26;20320;-62
2024/04/17 01:49:20;;;;;;;3.97;2.20;;;;;;;;;;5417801;26;20698;-62
2024/04/17 01:51:46;;;;;;;4.00;2.58;;;;;;;;;;5425164;26;19995;-62
2024/04/17 01:54:13;;;;;;;3.53;2.20;;;;;;;;;;5423388;26;20014;-62
2024/04/17 01:56:39;;;;;;;2.55;1.83;;;;;;;;;;5429463;26;20042;-67
2024/04/17 01:59:05;;;;;;;3.70;2.00;;;;;;;;;;5425247;26;20370;-67
2024/04/17 02:01:31;;;;;;;4.70;1.85;;;;;;;;;;5435180;26;20436;-67
2024/04/17 02:03:58;;;;;;;2.58;1.95;;;;;;;;;;5407189;26;20010;-68
2024/04/17 02:06:24;;;;;;;2.80;1.70;;;;;;;;;;5431598;26;20011;-67
2024/04/17 02:08:50;;;;;;;5.28;2.20;;;;;;;;;;5421910;26;19991;-68
2024/04/17 02:11:16;;;;;;;2.30;1.98;;;;;;;;;;5399844;26;19995;-68
2024/04/17 02:13:42;;;;;;;9.40;2.92;;;;;;;;;;5429699;26;19999;-67
2024/04/17 02:16:08;;;;;;;5.20;2.47;;;;;;;;;;5432643;26;20104;-68
2024/04/17 02:18:35;;;;;;;2.97;1.98;;;;;;;;;;5426003;26;20031;-68
2024/04/17 02:21:02;;;;;;;3.70;2.85;;;;;;;;;;5424242;26;20015;-68
2024/04/17 02:23:28;;;;;;;3.38;1.80;;;;;;;;;;5423833;26;20406;-68
2024/04/17 02:25:57;;;;;;;2.13;1.80;;;;;;;;;;5436823;26;20014;-67
2024/04/17 02:28:24;;;;;;;4.53;2.42;;;;;;;;;;5424275;26;20092;-67
2024/04/17 02:30:50;;;;;;;2.55;1.80;;;;;;;;;;5431695;26;20002;-67
2024/04/17 02:33:16;;;;;;;5.93;2.28;;;;;;;;;;5389406;26;20070;-67
2024/04/17 02:35:42;;;;;;;2.70;1.98;;;;;;;;;;5433127;26;20017;-67
2024/04/17 02:38:08;;;;;;;3.83;2.00;;;;;;;;;;5406934;26;20391;-67
2024/04/17 02:40:35;;;;;;;3.03;2.33;;;;;;;;;;5427976;26;19998;-68
2024/04/17 02:43:01;;;;;;;1.20;1.20;;;;;;;;;;5426061;26;20067;-67
2024/04/17 02:45:27;;;;;;;5.43;1.85;;;;;;;;;;5424548;26;20446;-68
2024/04/17 02:47:53;;;;;;;3.22;2.30;;;;;;;;;;5430705;26;20044;-67
2024/04/17 02:50:19;;;;;;;1.90;1.55;;;;;;;;;;5436020;26;21033;-68
2024/04/17 02:52:46;;;;;;;7.72;2.13;;;;;;;;;;5431213;26;20434;-68
2024/04/17 02:55:12;;;;;;;8.40;2.42;;;;;;;;;;5430288;26;20093;-67
2024/04/17 02:57:38;;;;;;;2.30;1.95;;;;;;;;;;5437734;26;20003;-67
2024/04/17 03:00:04;;;;;;;1.65;1.55;;;;;;;;;;5429245;26;20494;-68
2024/04/17 03:02:31;;;;;;;2.80;1.75;;;;;;;;;;5391449;26;19999;-68
2024/04/17 03:04:57;;;;;;;7.68;2.08;;;;;;;;;;5419680;26;20521;-67
2024/04/17 03:07:23;;;;;;;2.08;1.92;;;;;;;;;;5418780;26;20005;-68
2024/04/17 03:09:53;;;;;;;5.00;2.30;;;;;;;;;;5430991;26;20038;-68
2024/04/17 03:12:19;;;;;;;1.70;1.60;;;;;;;;;;5428045;26;20419;-68
2024/04/17 03:14:45;;;;;;;3.15;1.70;;;;;;;;;;5420469;26;20019;-67
2024/04/17 03:17:11;;;;;;;5.35;2.40;;;;;;;;;;5408149;26;20075;-67
2024/04/17 03:19:37;;;;;;;2.35;1.80;;;;;;;;;;5432108;26;20003;-67
2024/04/17 03:22:04;;;;;;;7.10;2.28;;;;;;;;;;5430903;26;20088;-68
2024/04/17 03:24:30;;;;;;;4.13;1.80;;;;;;;;;;5435272;26;20052;-67
2024/04/17 03:26:56;;;;;;;4.53;2.55;;;;;;;;;;5434190;26;20625;-67
2024/04/17 03:29:22;;;;;;;6.95;2.15;;;;;;;;;;5402789;26;20248;-63
2024/04/17 03:31:49;;;;;;;5.97;2.05;;;;;;;;;;5429656;26;19999;-62
2024/04/17 03:34:15;;;;;;;2.00;1.83;;;;;;;;;;5422610;26;20398;-62
2024/04/17 03:36:41;;;;;;;3.05;2.00;;;;;;;;;;5419144;26;20014;-63
2024/04/17 03:39:07;;;;;;;7.30;2.50;;;;;;;;;;5424746;26;20072;-63
2024/04/17 03:41:33;;;;;;;3.00;1.75;;;;;;;;;;5420416;26;20003;-62
2024/04/17 03:44:00;;;;;;;3.80;2.10;;;;;;;;;;5420098;26;20446;-62
2024/04/17 03:46:26;;;;;;;3.38;1.75;;;;;;;;;;5427708;26;20793;-63
2024/04/17 03:48:52;;;;;;;6.88;2.35;;;;;;;;;;5407512;26;20540;-63
2024/04/17 03:51:18;;;;;;;2.63;2.33;;;;;;;;;;5414548;26;20006;-62
2024/04/17 03:53:44;;;;;;;3.35;1.95;;;;;;;;;;5430653;26;19995;-62
2024/04/17 03:56:11;;;;;;;1.50;1.40;;;;;;;;;;5418376;26;20985;-62
2024/04/17 03:58:37;;;;;;;8.48;2.40;;;;;;;;;;5409386;26;20047;-63
2024/04/17 04:01:03;;;;;;;7.07;1.65;;;;;;;;;;5433001;26;20764;-62
2024/04/17 04:03:29;;;;;;;5.13;2.10;;;;;;;;;;5430909;26;20081;-63
2024/04/17 04:05:55;;;;;;;4.40;1.63;;;;;;;;;;5424814;26;20017;-63
2024/04/17 04:08:21;;;;;;;6.50;2.20;;;;;;;;;;5422359;26;20005;-63
2024/04/17 04:10:47;;;;;;;6.65;2.00;;;;;;;;;;5439470;26;19995;-64
2024/04/17 04:13:14;;;;;;;2.97;2.58;;;;;;;;;;5425811;26;20076;-63
2024/04/17 04:15:40;;;;;;;4.80;2.20;;;;;;;;;;5428489;26;19998;-63
2024/04/17 04:18:06;;;;;;;5.53;1.92;;;;;;;;;;5427765;26;20601;-63
2024/04/17 04:20:33;;;;;;;2.47;1.92;;;;;;;;;;5433003;26;19999;-63
2024/04/17 04:22:59;;;;;;;2.00;1.58;;;;;;;;;;5433577;26;20332;-63
2024/04/17 04:25:25;;;;;;;11.85;1.90;;;;;;;;;;5427765;26;20004;-64
2024/04/17 04:27:51;;;;;;;3.60;2.10;;;;;;;;;;5389030;26;19995;-62
2024/04/17 04:30:17;;;;;;;2.75;1.98;;;;;;;;;;5425241;26;20018;-63
2024/04/17 04:32:45;;;;;;;2.13;1.92;;;;;;;;;;5427668;26;20000;-70
2024/04/17 04:35:11;;;;;;;2.30;2.03;;;;;;;;;;5427242;26;21037;-63
2024/04/17 04:37:37;;;;;;;2.40;2.20;;;;;;;;;;5397303;26;20002;-64
2024/04/17 04:40:03;;;;;;;3.65;1.77;;;;;;;;;;5433841;26;20017;-63
2024/04/17 04:42:30;;;;;;;1.73;1.40;;;;;;;;;;5413376;26;20449;-63
2024/04/17 04:44:56;;;;;;;4.28;2.08;;;;;;;;;;5434280;26;20766;-64
2024/04/17 04:47:22;;;;;;;3.00;1.95;;;;;;;;;;5434098;26;20296;-63
2024/04/17 04:49:48;;;;;;;2.58;1.98;;;;;;;;;;5427931;26;20522;-68
2024/04/17 04:52:14;;;;;;;7.32;3.10;;;;;;;;;;5432464;26;20099;-68
2024/04/17 04:54:40;;;;;;;2.95;1.92;;;;;;;;;;5434955;26;20014;-68
2024/04/17 04:57:06;;;;;;;3.63;1.80;;;;;;;;;;5404339;26;20077;-68
2024/04/17 04:59:33;;;;;;;9.57;2.20;;;;;;;;;;5435535;26;20895;-68
2024/04/17 05:01:59;;;;;;;1.73;1.63;;;;;;;;;;5428519;26;19991;-68
2024/04/17 05:04:25;;;;;;;5.05;2.10;;;;;;;;;;5433633;26;20006;-68
2024/04/17 05:06:51;;;;;;;4.68;1.73;;;;;;;;;;5441907;26;20049;-68
2024/04/17 05:09:17;;;;;;;6.93;1.98;;;;;;;;;;5401093;26;20076;-68
2024/04/17 05:11:43;;;;;;;2.83;1.98;;;;;;;;;;5435472;26;19998;-68
2024/04/17 05:14:09;;;;;;;4.07;1.80;;;;;;;;;;5427087;26;20034;-68
2024/04/17 05:16:36;;;;;;;7.05;1.80;;;;;;;;;;5432754;26;20003;-67
2024/04/17 05:19:02;;;;;;;4.38;2.00;;;;;;;;;;5423528;26;21102;-69
2024/04/17 05:21:29;;;;;;;2.22;2.05;;;;;;;;;;5433995;26;20659;-68
2024/04/17 05:23:56;;;;;;;1.80;1.70;;;;;;;;;;5405705;26;20063;-68
2024/04/17 05:26:22;;;;;;;4.22;1.50;;;;;;;;;;5399097;26;19999;-68
2024/04/17 05:28:48;;;;;;;5.03;1.88;;;;;;;;;;5373666;26;20021;-68
2024/04/17 05:31:15;;;;;;;4.25;2.22;;;;;;;;;;5417322;26;20003;-68
2024/04/17 05:33:44;;;;;;;7.00;1.98;;;;;;;;;;5423898;26;20010;-68
2024/04/17 05:36:11;;;;;;;2.13;1.73;;;;;;;;;;5432911;26;19995;-68
2024/04/17 05:38:37;;;;;;;1.88;1.65;;;;;;;;;;5428575;26;19998;-68
2024/04/17 05:41:03;;;;;;;5.85;2.20;;;;;;;;;;5423345;26;19999;-68
2024/04/17 05:43:30;;;;;;;14.35;2.65;;;;;;;;;;5421743;26;20573;-67
2024/04/17 05:45:56;;;;;;;8.02;3.45;;;;;;;;;;5412955;26;20339;-68
2024/04/17 05:48:22;;;;;;;6.28;1.73;;;;;;;;;;5422898;26;19996;-67
2024/04/17 05:50:48;;;;;;;5.10;1.83;;;;;;;;;;5436614;26;19996;-70
2024/04/17 05:53:14;;;;;;;2.35;1.73;;;;;;;;;;5432004;26;20007;-69
2024/04/17 05:55:41;;;;;;;4.28;2.17;;;;;;;;;;5440050;26;20002;-70
2024/04/17 05:58:08;;;;;;;3.30;1.98;;;;;;;;;;5423781;26;20014;-70
2024/04/17 06:00:35;;;;;;;14.48;2.22;;;;;;;;;;5433505;26;20011;-71
2024/04/17 06:03:01;;;;;;;1.98;1.80;;;;;;;;;;5438624;26;20398;-70
2024/04/17 06:05:27;;;;;;;6.63;2.25;;;;;;;;;;5433478;26;20068;-68
2024/04/17 06:07:53;;;;;;;3.85;1.90;;;;;;;;;;5439794;26;19999;-68
2024/04/17 06:10:19;;;;;;;2.50;2.15;;;;;;;;;;5402614;26;20015;-68
2024/04/17 06:12:46;;;;;;;6.45;2.35;;;;;;;;;;5435400;26;20474;-68
2024/04/17 06:15:12;;;;;;;4.20;1.77;;;;;;;;;;5431067;26;20014;-69
2024/04/17 06:17:38;;;;;;;4.70;2.28;;;;;;;;;;5441337;26;19995;-68
2024/04/17 06:20:05;;;;;;;5.15;1.90;;;;;;;;;;5430890;26;20084;-68
2024/04/17 06:22:31;;;;;;;2.00;1.63;;;;;;;;;;5437692;26;20014;-68
2024/04/17 06:24:57;;;;;;;5.03;2.15;;;;;;;;;;5442772;26;20018;-68
2024/04/17 06:27:23;;;;;;;4.75;2.65;;;;;;;;;;5445088;26;20040;-68
2024/04/17 06:29:50;;;;;;;3.63;2.30;;;;;;;;;;5408403;26;20007;-69
2024/04/17 06:32:16;;;;;;;4.88;2.15;;;;;;;;;;5428264;26;20034;-68
2024/04/17 06:34:42;;;;;;;1.75;1.63;;;;;;;;;;5438972;26;19999;-68
2024/04/17 06:37:08;;;;;;;2.03;1.83;;;;;;;;;;5429938;26;20098;-68
2024/04/17 06:39:36;;;;;;;3.88;2.13;;;;;;;;;;5428336;26;20464;-68
2024/04/17 06:42:02;;;;;;;9.95;2.13;;;;;;;;;;5429492;26;20000;-69
2024/04/17 06:44:28;;;;;;;1.88;1.75;;;;;;;;;;5444104;26;20320;-68
2024/04/17 06:46:54;;;;;;;7.97;1.88;;;;;;;;;;5433248;26;20496;-68
2024/04/17 06:49:20;;;;;;;12.48;2.85;;;;;;;;;;5433219;26;20382;-68
2024/04/17 06:51:46;;;;;;;3.97;1.77;;;;;;;;;;5423051;26;20493;-67
2024/04/17 06:54:13;;;;;;;6.47;2.22;;;;;;;;;;5438477;26;20018;-68
2024/04/17 06:56:39;;;;;;;3.75;1.67;;;;;;;;;;5430303;26;20017;-68
2024/04/17 06:59:05;;;;;;;3.85;1.92;;;;;;;;;;5438639;26;19998;-67
2024/04/17 07:01:32;;;;;;;6.95;2.05;;;;;;;;;;5431699;26;20533;-68
2024/04/17 07:03:58;;;;;;;2.47;2.10;;;;;;;;;;5407398;26;19991;-67
2024/04/17 07:06:24;;;;;;;4.30;2.03;;;;;;;;;;5399423;26;19995;-70
2024/04/17 07:08:51;;;;;;;3.40;1.85;;;;;;;;;;5439524;26;19999;-68
2024/04/17 07:11:17;;;;;;;3.70;2.28;;;;;;;;;;5392363;26;20011;-68
2024/04/17 07:13:43;;;;;;;2.85;1.92;;;;;;;;;;5437599;26;20007;-68
2024/04/17 07:16:09;;;;;;;3.40;2.08;;;;;;;;;;5431077;26;20099;-69
2024/04/17 07:18:36;;;;;;;1.95;1.65;;;;;;;;;;5441181;26;19991;-68
2024/04/17 07:21:02;;;;;;;4.07;1.83;;;;;;;;;;5444783;26;20010;-68
2024/04/17 07:23:29;;;;;;;3.58;1.80;;;;;;;;;;5432849;26;19995;-68
2024/04/17 07:25:55;;;;;;;2.30;1.95;;;;;;;;;;5428964;26;20026;-69
2024/04/17 07:28:21;;;;;;;2.05;1.90;;;;;;;;;;5436182;26;19998;-69
2024/04/17 07:30:48;;;;;;;7.38;2.53;;;;;;;;;;5428395;26;20359;-68
2024/04/17 07:33:14;;;;;;;6.57;2.22;;;;;;;;;;5400460;26;20014;-69
2024/04/17 07:35:40;;;;;;;2.95;1.88;;;;;;;;;;5429463;26;20076;-68
2024/04/17 07:38:09;;;;;;;4.05;1.55;;;;;;;;;;5437509;26;20459;-69
2024/04/17 07:40:35;;;;;;;2.05;1.60;;;;;;;;;;5425336;26;20455;-68
2024/04/17 07:43:01;;;;;;;2.00;1.70;;;;;;;;;;5425653;26;20012;-68
2024/04/17 07:45:27;;;;;;;2.05;1.75;;;;;;;;;;5396272;26;20011;-70
2024/04/17 07:47:53;;;;;;;7.70;1.92;;;;;;;;;;5440305;26;20002;-68
2024/04/17 07:50:20;;;;;;;3.15;2.42;;;;;;;;;;5404372;26;19991;-68
2024/04/17 07:52:46;;;;;;;3.70;2.13;;;;;;;;;;5401080;26;20355;-68
2024/04/17 07:55:12;;;;;;;2.95;2.00;;;;;;;;;;5423837;26;20431;-69
2024/04/17 07:57:39;;;;;;;14.75;2.53;;;;;;;;;;5434331;26;20027;-68
2024/04/17 08:00:05;;;;;;;2.50;1.70;;;;;;;;;;5406289;26;20018;-69
2024/04/17 08:02:31;;;;;;;3.55;1.95;;;;;;;;;;5427173;26;19999;-68
2024/04/17 08:04:57;;;;;;;5.15;2.47;;;;;;;;;;5437449;26;20076;-68
2024/04/17 08:07:24;;;;;;;2.10;1.50;;;;;;;;;;5400160;26;20005;-68
2024/04/17 08:09:50;;;;;;;6.85;2.17;;;;;;;;;;5434822;26;20068;-68
2024/04/17 08:12:16;;;;;;;11.75;2.47;;;;;;;;;;5431938;26;20392;-67
2024/04/17 08:14:42;;;;;;;4.57;1.98;;;;;;;;;;5397133;26;19995;-68
2024/04/17 08:17:09;;;;;;;2.80;2.33;;;;;;;;;;5404604;26;20045;-67
2024/04/17 08:19:36;;;;;;;1.83;1.73;;;;;;;;;;5409806;26;20319;-68
2024/04/17 08:22:02;;;;;;;3.17;1.95;;;;;;;;;;5398333;26;20047;-68
2024/04/17 08:24:28;;;;;;;7.75;2.08;;;;;;;;;;5403122;26;20026;-68
2024/04/17 08:26:55;;;;;;;5.80;2.10;;;;;;;;;;5405064;26;19995;-68
2024/04/17 08:29:21;;;;;;;5.07;2.20;;;;;;;;;;5397571;26;20097;-68
2024/04/17 08:31:47;;;;;;;2.55;1.85;;;;;;;;;;5400203;26;20004;-68
2024/04/17 08:34:14;;;;;;;1.88;1.73;;;;;;;;;;5388190;26;19996;-68
2024/04/17 08:36:40;;;;;;;3.40;2.25;;;;;;;;;;5384613;26;20812;-68
2024/04/17 08:39:06;;;;;;;2.70;2.13;;;;;;;;;;5406952;26;20389;-68
2024/04/17 08:41:34;;;;;;;2.45;2.10;;;;;;;;;;5392840;26;20008;-68
2024/04/17 08:44:01;;;;;;;5.07;1.70;;;;;;;;;;5400430;26;19999;-67
2024/04/17 08:46:30;;;;;;;2.58;1.85;;;;;;;;;;5392680;26;20360;-68
2024/04/17 08:48:56;;;;;;;3.60;2.05;;;;;;;;;;5395287;26;20039;-68
2024/04/17 08:51:24;;;;;;;5.43;2.13;;;;;;;;;;5404300;26;20437;-68
2024/04/17 08:53:52;;;;;;;5.18;1.80;;;;;;;;;;5396355;26;20044;-68
2024/04/17 08:56:18;;;;;;;4.53;3.05;;;;;;;;;;5402108;26;20021;-67
2024/04/17 08:58:46;;;;;;;3.60;2.25;;;;;;;;;;5393020;26;20014;-69
2024/04/17 09:01:13;;;;;;;2.17;1.92;;;;;;;;;;5398851;26;20417;-68
2024/04/17 09:03:43;;;;;;;2.55;1.90;;;;;;;;;;5402485;26;20003;-68
2024/04/17 09:06:09;;;;;;;6.75;2.13;;;;;;;;;;5396048;26;20092;-68
2024/04/17 09:08:37;;;;;;;5.22;1.95;;;;;;;;;;5407298;26;20339;-68
2024/04/17 09:11:03;;;;;;;5.75;2.20;;;;;;;;;;5401533;26;20459;-68
2024/04/17 09:13:29;;;;;;;13.00;1.98;;;;;;;;;;5406294;26;20080;-68
2024/04/17 09:15:56;;;;;;;2.28;2.08;;;;;;;;;;5389259;26;20583;-68
2024/04/17 09:18:25;;;;;;;4.57;2.35;;;;;;;;;;5397129;26;20317;-68
2024/04/17 09:20:54;;;;;;;4.75;2.33;;;;;;;;;;5394758;26;20022;-68
2024/04/17 09:23:24;;;;;;;8.43;2.40;;;;;;;;;;5399806;26;20000;-68
2024/04/17 09:25:50;;;;;;;2.75;2.00;;;;;;;;;;5396627;26;20449;-68
2024/04/17 09:28:16;;;;;;;2.05;1.90;;;;;;;;;;5389063;26;20000;-68
2024/04/17 09:30:43;;;;;;;7.00;2.38;;;;;;;;;;5397134;26;20027;-69
2024/04/17 09:33:12;;;;;;;2.17;1.77;;;;;;;;;;5392837;26;19996;-68
2024/04/17 09:35:38;;;;;;;13.63;2.58;;;;;;;;;;5404522;26;20003;-68
2024/04/17 09:38:14;;;;;;;3.72;2.00;;;;;;;;;;5387670;26;20014;-68
2024/04/17 09:40:49;;;;;;;5.18;2.75;;;;;;;;;;5396644;26;20003;-68
2024/04/17 09:43:26;;;;;;;3.47;2.15;;;;;;;;;;5391800;26;20000;-68
2024/04/17 09:46:02;;;;;;;8.75;2.45;;;;;;;;;;5403784;26;20542;-68
2024/04/17 09:48:29;;;;;;;4.68;2.42;;;;;;;;;;5390907;26;19995;-69
2024/04/17 09:51:14;;;;;;;7.43;2.03;;;;;;;;;;5406686;26;20008;-69
2024/04/17 09:53:47;;;;;;;5.85;2.53;;;;;;;;;;5394677;26;20000;-68
2024/04/17 09:56:15;;;;;;;9.45;2.63;;;;;;;;;;5397355;26;20536;-68
2024/04/17 09:58:46;;;;;;;8.00;2.40;;;;;;;;;;5400573;26;20073;-68
2024/04/17 10:01:13;;;;;;;2.90;2.15;;;;;;;;;;5405878;26;20077;-69
2024/04/17 10:03:41;;;;;;;8.85;2.55;;;;;;;;;;5402733;26;20707;-69
2024/04/17 10:06:09;;;;;;;2.42;2.22;;;;;;;;;;5406798;26;20382;-69
2024/04/17 10:08:36;;;;;;;3.70;3.00;;;;;;;;;;5402868;26;20467;-70
2024/04/17 10:11:04;;;;;;;4.50;2.22;;;;;;;;;;5402577;26;20000;-68
2024/04/17 10:13:31;;;;;;;3.28;2.75;;;;;;;;;;5397218;26;19996;-69
2024/04/17 10:15:58;;;;;;;5.15;2.42;;;;;;;;;;5435789;26;20018;-68
2024/04/17 10:18:24;;;;;;;9.90;2.40;;;;;;;;;;5434183;26;20003;-69
2024/04/17 10:20:54;;;;;;;3.28;2.28;;;;;;;;;;5428641;26;20008;-69
2024/04/17 10:23:28;;;;;;;15.63;2.42;;;;;;;;;;5437248;26;20395;-66
2024/04/17 10:25:59;;;;;;;2.20;2.08;;;;;;;;;;5429905;26;20536;-64
2024/04/17 10:28:26;;;;;;;4.55;2.53;;;;;;;;;;5412678;26;20411;-64
2024/04/17 10:30:56;;;;;;;3.58;3.25;;;;;;;;;;5421683;26;20630;-64
2024/04/17 10:33:29;;;;;;;4.43;2.35;;;;;;;;;;5412747;26;20062;-64
2024/04/17 10:35:57;;;;;;;2.97;2.20;;;;;;;;;;5425101;26;19995;-66
2024/04/17 10:38:24;;;;;;;4.28;1.90;;;;;;;;;;5430174;26;20010;-64
2024/04/17 10:40:55;;;;;;;3.95;2.40;;;;;;;;;;5410779;26;20007;-64
2024/04/17 10:43:22;;;;;;;4.32;1.90;;;;;;;;;;5426201;26;19991;-64
2024/04/17 10:46:07;;;;;;;4.13;2.28;;;;;;;;;;5412920;26;20011;-64
2024/04/17 10:48:52;;;;;;;3.77;2.90;;;;;;;;;;5385118;26;20686;-63
2024/04/17 10:51:20;;;;;;;3.33;2.28;;;;;;;;;;5421826;26;19991;-64
2024/04/17 10:53:47;;;;;;;3.55;2.28;;;;;;;;;;5422748;26;20030;-64
2024/04/17 10:56:16;;;;;;;3.90;2.30;;;;;;;;;;5419982;26;20616;-64
2024/04/17 10:58:43;;;;;;;2.47;2.22;;;;;;;;;;5428863;26;19994;-64
2024/04/17 11:01:11;;;;;;;2.40;2.15;;;;;;;;;;5423659;26;20011;-64
2024/04/17 11:03:38;;;;;;;3.63;2.00;;;;;;;;;;5431161;26;20610;-64
2024/04/17 11:06:05;;;;;;;3.00;2.70;;;;;;;;;;5413939;26;20027;-64
2024/04/17 11:08:31;;;;;;;6.45;3.03;;;;;;;;;;5422736;26;19990;-64
2024/04/17 11:10:57;;;;;;;4.45;2.38;;;;;;;;;;5408672;26;20003;-64
2024/04/17 11:13:23;;;;;;;5.30;2.88;;;;;;;;;;5421943;26;20002;-64
2024/04/17 11:15:50;;;;;;;4.22;2.33;;;;;;;;;;5417383;26;19992;-64
2024/04/17 11:18:16;;;;;;;4.43;1.95;;;;;;;;;;5422826;26;20007;-64
2024/04/17 11:20:43;;;;;;;4.78;2.13;;;;;;;;;;5415228;26;20007;-68
2024/04/17 11:23:10;;;;;;;2.78;1.98;;;;;;;;;;5441993;26;20378;-68
2024/04/17 11:25:37;;;;;;;5.32;2.50;;;;;;;;;;5406910;26;20007;-68
2024/04/17 11:28:04;;;;;;;3.33;2.38;;;;;;;;;;5443702;26;20010;-68
2024/04/17 11:30:30;;;;;;;4.00;2.80;;;;;;;;;;5403643;26;20023;-68
2024/04/17 11:32:56;;;;;;;4.93;2.38;;;;;;;;;;5434278;26;20018;-68
2024/04/17 11:35:22;;;;;;;3.25;2.47;;;;;;;;;;5442541;26;20049;-68
2024/04/17 11:37:52;;;;;;;2.40;2.15;;;;;;;;;;5437643;26;20074;-68
2024/04/17 11:40:18;;;;;;;3.85;2.50;;;;;;;;;;5441374;26;19999;-68
2024/04/17 11:42:45;;;;;;;7.68;4.15;;;;;;;;;;5437402;26;20013;-68
2024/04/17 11:45:13;;;;;;;3.60;2.42;;;;;;;;;;5439589;26;20006;-68
2024/04/17 11:47:40;;;;;;;7.28;2.78;;;;;;;;;;5447661;26;20012;-68
2024/04/17 11:52:55;;;;;;;4.78;2.47;;;;;;;;;;5428049;26;20048;-68
2024/04/17 11:55:22;;;;;;;2.60;2.40;;;;;;;;;;5432967;26;20011;-68
2024/04/17 11:57:48;;;;;;;2.65;2.28;;;;;;;;;;5415583;26;20002;-68
2024/04/17 12:00:15;;;;;;;4.35;2.63;;;;;;;;;;5446257;26;20064;-68
2024/04/17 12:02:41;;;;;;;4.10;2.53;;;;;;;;;;5437126;26;20017;-68
2024/04/17 12:05:08;;;;;;;7.47;2.78;;;;;;;;;;5437795;26;20026;-68
2024/04/17 12:07:34;;;;;;;11.18;3.47;;;;;;;;;;5403504;26;20003;-68
2024/04/17 12:10:00;;;;;;;3.85;2.42;;;;;;;;;;5448387;26;19999;-68
2024/04/17 12:12:27;;;;;;;5.40;2.97;;;;;;;;;;5413715;26;19999;-68
2024/04/17 12:14:57;;;;;;;7.15;2.45;;;;;;;;;;5451357;26;20077;-68
2024/04/17 12:17:24;;;;;;;5.18;3.17;;;;;;;;;;5444873;26;20003;-68
2024/04/17 12:19:50;;;;;;;3.90;3.20;;;;;;;;;;5445571;26;20529;-68
2024/04/17 12:22:16;;;;;;;9.88;3.67;;;;;;;;;;5446403;26;20003;-68
2024/04/17 12:27:27;;;;;;;3.03;2.67;;;;;;;;;;5447279;26;20018;-68
2024/04/17 12:29:53;;;;;;;3.80;3.40;;;;;;;;;;5441051;26;19995;-67
2024/04/17 12:32:19;;;;;;;7.32;3.90;;;;;;;;;;5438511;26;20011;-68
2024/04/17 12:34:45;;;;;;;5.57;3.30;;;;;;;;;;5444658;26;20006;-69
2024/04/17 12:37:13;;;;;;;6.55;3.83;;;;;;;;;;5445102;26;20007;-68
2024/04/17 12:39:40;;;;;;;4.82;3.08;;;;;;;;;;5432647;26;20006;-68
2024/04/17 12:42:06;;;;;;;5.85;3.53;;;;;;;;;;5401444;26;21567;-67
2024/04/17 12:44:32;;;;;;;4.82;3.08;;;;;;;;;;5414980;26;19995;-68
2024/04/17 12:46:58;;;;;;;6.60;3.97;;;;;;;;;;5411229;26;19999;-68
2024/04/17 12:49:24;;;;;;;3.60;2.88;;;;;;;;;;5441159;26;20017;-68
2024/04/17 12:51:51;;;;;;;5.57;3.60;;;;;;;;;;5409481;26;20431;-68
2024/04/17 12:54:17;;;;;;;6.63;4.55;;;;;;;;;;5434183;26;20098;-69
2024/04/17 12:56:44;;;;;;;5.32;3.28;;;;;;;;;;5433815;26;20014;-68
2024/04/17 12:59:10;;;;;;;4.35;3.42;;;;;;;;;;5439197;26;20782;-68
2024/04/17 13:01:36;;;;;;;6.05;3.47;;;;;;;;;;5441803;26;20044;-68
2024/04/17 13:04:03;;;;;;;4.25;3.35;;;;;;;;;;5427531;26;19995;-69
2024/04/17 13:06:35;;;;;;;5.72;3.20;;;;;;;;;;5450445;26;20476;-68
2024/04/17 13:09:03;;;;;;;4.13;3.08;;;;;;;;;;5430805;26;20417;-68
2024/04/17 13:11:29;;;;;;;10.30;3.17;;;;;;;;;;5414516;26;20462;-68
2024/04/17 13:13:56;;;;;;;3.58;2.53;;;;;;;;;;5436672;26;20456;-68
2024/04/17 13:16:23;;;;;;;6.00;2.78;;;;;;;;;;5412123;26;20444;-68
2024/04/17 13:18:49;;;;;;;3.90;2.83;;;;;;;;;;5444220;26;20021;-69
2024/04/17 13:21:18;;;;;;;3.47;2.50;;;;;;;;;;5418404;26;20084;-69
2024/04/17 13:23:45;;;;;;;3.75;2.40;;;;;;;;;;5416166;26;20475;-69
2024/04/17 13:26:11;;;;;;;3.30;2.70;;;;;;;;;;5414536;26;20036;-70
2024/04/17 13:28:37;;;;;;;3.30;2.53;;;;;;;;;;5394450;26;19999;-68
2024/04/17 13:31:08;;;;;;;6.10;2.67;;;;;;;;;;5437154;26;20075;-68
2024/04/17 13:33:38;;;;;;;4.53;2.42;;;;;;;;;;5439399;26;19995;-69
2024/04/17 13:36:06;;;;;;;4.25;3.20;;;;;;;;;;5413912;26;20067;-71
2024/04/17 13:38:32;;;;;;;4.43;2.65;;;;;;;;;;5411429;26;20007;-69
2024/04/17 13:41:06;;;;;;;3.22;2.65;;;;;;;;;;5432448;26;20013;-70
2024/04/17 13:43:33;;;;;;;2.78;2.47;;;;;;;;;;5430948;26;20071;-68
2024/04/17 13:46:05;;;;;;;5.90;3.05;;;;;;;;;;5445483;26;19999;-68
2024/04/17 13:48:31;;;;;;;4.13;2.65;;;;;;;;;;5427165;26;20427;-67
2024/04/17 13:51:01;;;;;;;2.17;1.95;;;;;;;;;;5445088;26;20075;-68
2024/04/17 13:53:27;;;;;;;2.30;2.10;;;;;;;;;;5429787;26;19998;-68
2024/04/17 13:55:53;;;;;;;3.85;2.75;;;;;;;;;;5433706;26;20327;-68
2024/04/17 13:58:20;;;;;;;2.55;2.35;;;;;;;;;;5434229;26;19999;-68
2024/04/17 14:00:46;;;;;;;2.60;2.40;;;;;;;;;;5414530;26;20009;-68
2024/04/17 14:03:12;;;;;;;3.15;2.38;;;;;;;;;;5393581;26;20435;-68
2024/04/17 14:05:38;;;;;;;4.72;3.03;;;;;;;;;;5430473;26;20466;-68
2024/04/17 14:08:05;;;;;;;4.18;2.53;;;;;;;;;;5420641;26;20022;-68
2024/04/17 14:10:31;;;;;;;2.90;2.22;;;;;;;;;;5411382;26;20587;-67
2024/04/17 14:12:57;;;;;;;3.17;2.13;;;;;;;;;;5422797;26;19998;-68
2024/04/17 14:15:24;;;;;;;2.20;1.95;;;;;;;;;;5393924;26;20467;-68
2024/04/17 14:17:50;;;;;;;3.95;2.92;;;;;;;;;;5390806;26;20014;-68
2024/04/17 14:20:16;;;;;;;2.60;2.40;;;;;;;;;;5387008;26;20000;-68
2024/04/17 14:22:42;;;;;;;2.50;2.20;;;;;;;;;;5393622;26;20629;-68
2024/04/17 14:25:08;;;;;;;3.03;2.40;;;;;;;;;;5399621;26;19996;-68
2024/04/17 14:27:34;;;;;;;3.10;2.13;;;;;;;;;;5396520;26;20496;-68
2024/04/17 14:30:01;;;;;;;3.65;2.70;;;;;;;;;;5390362;26;20355;-68
2024/04/17 14:32:27;;;;;;;3.65;2.88;;;;;;;;;;5399498;26;20482;-68
2024/04/17 14:34:55;;;;;;;2.50;2.25;;;;;;;;;;5393262;26;20045;-68
2024/04/17 14:37:22;;;;;;;2.55;2.00;;;;;;;;;;5395307;26;20021;-68
2024/04/17 14:39:50;;;;;;;3.05;2.47;;;;;;;;;;5396678;26;20510;-68
2024/04/17 14:42:16;;;;;;;6.45;2.97;;;;;;;;;;5422154;26;19995;-68
2024/04/17 14:44:42;;;;;;;4.45;3.45;;;;;;;;;;5390434;26;20777;-68
2024/04/17 14:47:09;;;;;;;3.67;2.80;;;;;;;;;;5425943;26;20046;-69